sensor_id;sensor_type;location;lat;lon;timestamp;P1;durP1;ratioP1;P2;durP2;ratioP2
16075;SDS011;8142;48.242;11.644;2022-07-22T00:00:22;16.03;;;13.60;;
16075;SDS011;8142;48.242;11.644;2022-07-22T00:02:48;16.13;;;14.40;;
16075;SDS011;8142;48.242;11.644;2022-07-22T00:05:14;17.37;;;14.33;;
16075;SDS011;8142;48.242;11.644;2022-07-22T00:07:40;15.33;;;13.70;;
16075;SDS011;8142;48.242;11.644;2022-07-22T00:10:06;16.10;;;14.17;;
16075;SDS011;8142;48.242;11.644;2022-07-22T00:12:33;15.90;;;14.20;;
16075;SDS011;8142;48.242;11.644;2022-07-22T00:14:59;17.63;;;14.40;;
16075;SDS011;8142;48.242;11.644;2022-07-22T00:17:25;17.07;;;14.70;;
16075;SDS011;8142;48.242;11.644;2022-07-22T00:19:51;16.60;;;13.87;;
16075;SDS011;8142;48.242;11.644;2022-07-22T00:22:17;15.60;;;14.00;;
16075;SDS011;8142;48.242;11.644;2022-07-22T00:24:43;15.47;;;13.87;;
16075;SDS011;8142;48.242;11.644;2022-07-22T00:27:09;15.10;;;13.60;;
16075;SDS011;8142;48.242;11.644;2022-07-22T00:29:34;15.50;;;13.90;;
16075;SDS011;8142;48.242;11.644;2022-07-22T00:32:00;15.20;;;13.60;;
16075;SDS011;8142;48.242;11.644;2022-07-22T00:34:26;17.20;;;13.77;;
16075;SDS011;8142;48.242;11.644;2022-07-22T00:36:52;16.17;;;13.93;;
16075;SDS011;8142;48.242;11.644;2022-07-22T00:39:18;15.53;;;13.63;;
16075;SDS011;8142;48.242;11.644;2022-07-22T00:41:44;17.73;;;13.93;;
16075;SDS011;8142;48.242;11.644;2022-07-22T00:44:09;14.77;;;13.27;;
16075;SDS011;8142;48.242;11.644;2022-07-22T00:46:36;17.83;;;14.63;;
16075;SDS011;8142;48.242;11.644;2022-07-22T00:49:04;15.00;;;13.43;;
16075;SDS011;8142;48.242;11.644;2022-07-22T00:51:31;15.80;;;14.10;;
16075;SDS011;8142;48.242;11.644;2022-07-22T00:53:57;18.03;;;13.93;;
16075;SDS011;8142;48.242;11.644;2022-07-22T00:56:25;15.10;;;13.50;;
16075;SDS011;8142;48.242;11.644;2022-07-22T00:58:53;17.30;;;14.00;;
16075;SDS011;8142;48.242;11.644;2022-07-22T01:01:20;16.13;;;14.07;;
16075;SDS011;8142;48.242;11.644;2022-07-22T01:03:46;16.53;;;13.77;;
16075;SDS011;8142;48.242;11.644;2022-07-22T01:06:12;16.97;;;14.20;;
16075;SDS011;8142;48.242;11.644;2022-07-22T01:08:38;14.77;;;12.97;;
16075;SDS011;8142;48.242;11.644;2022-07-22T01:11:15;14.03;;;12.57;;
16075;SDS011;8142;48.242;11.644;2022-07-22T01:13:43;14.33;;;12.13;;
16075;SDS011;8142;48.242;11.644;2022-07-22T01:16:11;13.97;;;12.43;;
16075;SDS011;8142;48.242;11.644;2022-07-22T01:18:38;13.40;;;12.03;;
16075;SDS011;8142;48.242;11.644;2022-07-22T01:21:05;13.97;;;12.47;;
16075;SDS011;8142;48.242;11.644;2022-07-22T01:23:33;14.00;;;12.50;;
16075;SDS011;8142;48.242;11.644;2022-07-22T01:25:59;13.53;;;12.07;;
16075;SDS011;8142;48.242;11.644;2022-07-22T01:28:25;14.93;;;13.20;;
16075;SDS011;8142;48.242;11.644;2022-07-22T01:30:51;15.83;;;12.80;;
16075;SDS011;8142;48.242;11.644;2022-07-22T01:33:17;14.53;;;12.97;;
16075;SDS011;8142;48.242;11.644;2022-07-22T01:35:44;14.60;;;12.33;;
16075;SDS011;8142;48.242;11.644;2022-07-22T01:38:11;14.13;;;12.63;;
16075;SDS011;8142;48.242;11.644;2022-07-22T01:40:37;13.80;;;12.40;;
16075;SDS011;8142;48.242;11.644;2022-07-22T01:43:04;14.57;;;12.37;;
16075;SDS011;8142;48.242;11.644;2022-07-22T01:45:30;14.43;;;12.63;;
16075;SDS011;8142;48.242;11.644;2022-07-22T01:47:55;15.73;;;12.97;;
16075;SDS011;8142;48.242;11.644;2022-07-22T01:50:21;14.00;;;12.60;;
16075;SDS011;8142;48.242;11.644;2022-07-22T01:52:47;15.13;;;12.13;;
16075;SDS011;8142;48.242;11.644;2022-07-22T01:55:13;14.03;;;12.60;;
16075;SDS011;8142;48.242;11.644;2022-07-22T01:57:39;14.77;;;12.67;;
16075;SDS011;8142;48.242;11.644;2022-07-22T02:00:05;14.67;;;13.17;;
16075;SDS011;8142;48.242;11.644;2022-07-22T02:02:33;16.20;;;13.60;;
16075;SDS011;8142;48.242;11.644;2022-07-22T02:04:59;15.07;;;13.47;;
16075;SDS011;8142;48.242;11.644;2022-07-22T02:07:25;15.53;;;13.77;;
16075;SDS011;8142;48.242;11.644;2022-07-22T02:09:51;16.20;;;12.33;;
16075;SDS011;8142;48.242;11.644;2022-07-22T02:12:18;14.10;;;12.70;;
16075;SDS011;8142;48.242;11.644;2022-07-22T02:14:44;14.20;;;12.33;;
16075;SDS011;8142;48.242;11.644;2022-07-22T02:17:11;14.23;;;12.83;;
16075;SDS011;8142;48.242;11.644;2022-07-22T02:19:37;15.17;;;12.93;;
16075;SDS011;8142;48.242;11.644;2022-07-22T02:22:03;14.70;;;13.03;;
16075;SDS011;8142;48.242;11.644;2022-07-22T02:24:29;15.57;;;13.33;;
16075;SDS011;8142;48.242;11.644;2022-07-22T02:26:55;13.73;;;12.43;;
16075;SDS011;8142;48.242;11.644;2022-07-22T02:29:21;14.17;;;12.07;;
16075;SDS011;8142;48.242;11.644;2022-07-22T02:31:47;13.90;;;11.53;;
16075;SDS011;8142;48.242;11.644;2022-07-22T02:34:13;10.50;;;9.20;;
16075;SDS011;8142;48.242;11.644;2022-07-22T02:36:39;11.00;;;9.90;;
16075;SDS011;8142;48.242;11.644;2022-07-22T02:39:05;10.87;;;9.80;;
16075;SDS011;8142;48.242;11.644;2022-07-22T02:41:31;12.03;;;10.23;;
16075;SDS011;8142;48.242;11.644;2022-07-22T02:43:57;13.30;;;11.07;;
16075;SDS011;8142;48.242;11.644;2022-07-22T02:46:24;14.27;;;12.00;;
16075;SDS011;8142;48.242;11.644;2022-07-22T02:48:51;13.17;;;11.63;;
16075;SDS011;8142;48.242;11.644;2022-07-22T02:51:17;15.60;;;12.37;;
16075;SDS011;8142;48.242;11.644;2022-07-22T02:53:42;15.07;;;13.03;;
16075;SDS011;8142;48.242;11.644;2022-07-22T02:56:08;14.40;;;12.40;;
16075;SDS011;8142;48.242;11.644;2022-07-22T02:58:34;13.57;;;12.00;;
16075;SDS011;8142;48.242;11.644;2022-07-22T03:01:00;14.97;;;12.17;;
16075;SDS011;8142;48.242;11.644;2022-07-22T03:03:26;12.47;;;11.17;;
16075;SDS011;8142;48.242;11.644;2022-07-22T03:05:52;11.80;;;10.47;;
16075;SDS011;8142;48.242;11.644;2022-07-22T03:08:17;11.30;;;10.20;;
16075;SDS011;8142;48.242;11.644;2022-07-22T03:10:43;11.40;;;10.20;;
16075;SDS011;8142;48.242;11.644;2022-07-22T03:13:09;12.93;;;10.63;;
16075;SDS011;8142;48.242;11.644;2022-07-22T03:15:35;12.17;;;10.17;;
16075;SDS011;8142;48.242;11.644;2022-07-22T03:18:01;11.93;;;10.63;;
16075;SDS011;8142;48.242;11.644;2022-07-22T03:20:27;11.50;;;10.33;;
16075;SDS011;8142;48.242;11.644;2022-07-22T03:22:52;10.77;;;9.77;;
16075;SDS011;8142;48.242;11.644;2022-07-22T03:25:18;12.70;;;10.13;;
16075;SDS011;8142;48.242;11.644;2022-07-22T03:27:44;12.37;;;11.10;;
16075;SDS011;8142;48.242;11.644;2022-07-22T03:30:10;15.00;;;11.97;;
16075;SDS011;8142;48.242;11.644;2022-07-22T03:32:36;14.10;;;12.47;;
16075;SDS011;8142;48.242;11.644;2022-07-22T03:35:02;14.37;;;12.83;;
16075;SDS011;8142;48.242;11.644;2022-07-22T03:37:28;14.03;;;12.53;;
16075;SDS011;8142;48.242;11.644;2022-07-22T03:39:54;13.33;;;11.83;;
16075;SDS011;8142;48.242;11.644;2022-07-22T03:42:20;15.13;;;12.30;;
16075;SDS011;8142;48.242;11.644;2022-07-22T03:44:46;14.00;;;12.23;;
16075;SDS011;8142;48.242;11.644;2022-07-22T03:47:16;12.70;;;11.40;;
16075;SDS011;8142;48.242;11.644;2022-07-22T03:49:43;12.87;;;11.57;;
16075;SDS011;8142;48.242;11.644;2022-07-22T03:52:09;13.97;;;12.33;;
16075;SDS011;8142;48.242;11.644;2022-07-22T03:54:35;14.17;;;12.03;;
16075;SDS011;8142;48.242;11.644;2022-07-22T03:57:00;14.97;;;11.70;;
16075;SDS011;8142;48.242;11.644;2022-07-22T03:59:26;13.57;;;12.07;;
16075;SDS011;8142;48.242;11.644;2022-07-22T04:01:52;14.60;;;12.60;;
16075;SDS011;8142;48.242;11.644;2022-07-22T04:04:18;15.23;;;13.03;;
16075;SDS011;8142;48.242;11.644;2022-07-22T04:06:44;14.30;;;12.73;;
16075;SDS011;8142;48.242;11.644;2022-07-22T04:09:10;13.63;;;12.17;;
16075;SDS011;8142;48.242;11.644;2022-07-22T04:11:36;16.30;;;12.40;;
16075;SDS011;8142;48.242;11.644;2022-07-22T04:14:02;14.67;;;12.53;;
16075;SDS011;8142;48.242;11.644;2022-07-22T04:16:28;14.40;;;12.73;;
16075;SDS011;8142;48.242;11.644;2022-07-22T04:18:54;15.47;;;13.03;;
16075;SDS011;8142;48.242;11.644;2022-07-22T04:21:20;15.77;;;13.37;;
16075;SDS011;8142;48.242;11.644;2022-07-22T04:23:45;14.40;;;12.90;;
16075;SDS011;8142;48.242;11.644;2022-07-22T04:26:11;16.50;;;13.33;;
16075;SDS011;8142;48.242;11.644;2022-07-22T04:28:37;18.07;;;13.90;;
16075;SDS011;8142;48.242;11.644;2022-07-22T04:31:03;15.53;;;13.83;;
16075;SDS011;8142;48.242;11.644;2022-07-22T04:33:29;16.30;;;13.27;;
16075;SDS011;8142;48.242;11.644;2022-07-22T04:35:55;14.77;;;13.13;;
16075;SDS011;8142;48.242;11.644;2022-07-22T04:38:22;16.67;;;13.43;;
16075;SDS011;8142;48.242;11.644;2022-07-22T04:40:48;17.57;;;13.80;;
16075;SDS011;8142;48.242;11.644;2022-07-22T04:43:14;16.13;;;13.50;;
16075;SDS011;8142;48.242;11.644;2022-07-22T04:45:40;16.37;;;13.93;;
16075;SDS011;8142;48.242;11.644;2022-07-22T04:48:05;16.57;;;13.70;;
16075;SDS011;8142;48.242;11.644;2022-07-22T04:50:31;14.97;;;13.37;;
16075;SDS011;8142;48.242;11.644;2022-07-22T04:52:57;15.40;;;13.03;;
16075;SDS011;8142;48.242;11.644;2022-07-22T04:55:23;14.93;;;13.30;;
16075;SDS011;8142;48.242;11.644;2022-07-22T04:57:49;16.37;;;12.80;;
16075;SDS011;8142;48.242;11.644;2022-07-22T05:00:15;16.00;;;13.07;;
16075;SDS011;8142;48.242;11.644;2022-07-22T05:02:42;15.43;;;13.30;;
16075;SDS011;8142;48.242;11.644;2022-07-22T05:05:08;15.50;;;13.20;;
16075;SDS011;8142;48.242;11.644;2022-07-22T05:07:34;17.13;;;13.53;;
16075;SDS011;8142;48.242;11.644;2022-07-22T05:10:00;15.87;;;13.30;;
16075;SDS011;8142;48.242;11.644;2022-07-22T05:12:25;15.80;;;13.27;;
16075;SDS011;8142;48.242;11.644;2022-07-22T05:14:51;16.43;;;13.70;;
16075;SDS011;8142;48.242;11.644;2022-07-22T05:17:17;17.17;;;13.77;;
16075;SDS011;8142;48.242;11.644;2022-07-22T05:19:43;16.07;;;14.37;;
16075;SDS011;8142;48.242;11.644;2022-07-22T05:22:09;17.80;;;14.13;;
16075;SDS011;8142;48.242;11.644;2022-07-22T05:24:38;15.73;;;14.13;;
16075;SDS011;8142;48.242;11.644;2022-07-22T05:27:04;16.47;;;13.83;;
16075;SDS011;8142;48.242;11.644;2022-07-22T05:29:30;17.50;;;14.00;;
16075;SDS011;8142;48.242;11.644;2022-07-22T05:31:55;18.40;;;14.53;;
16075;SDS011;8142;48.242;11.644;2022-07-22T05:34:22;15.77;;;13.47;;
16075;SDS011;8142;48.242;11.644;2022-07-22T05:36:48;15.80;;;14.00;;
16075;SDS011;8142;48.242;11.644;2022-07-22T05:39:14;18.20;;;14.90;;
16075;SDS011;8142;48.242;11.644;2022-07-22T05:41:39;17.27;;;13.20;;
16075;SDS011;8142;48.242;11.644;2022-07-22T05:44:05;16.17;;;13.67;;
16075;SDS011;8142;48.242;11.644;2022-07-22T05:46:31;16.53;;;12.77;;
16075;SDS011;8142;48.242;11.644;2022-07-22T05:48:57;16.90;;;13.67;;
16075;SDS011;8142;48.242;11.644;2022-07-22T05:51:23;15.27;;;12.73;;
16075;SDS011;8142;48.242;11.644;2022-07-22T05:53:49;16.17;;;13.27;;
16075;SDS011;8142;48.242;11.644;2022-07-22T05:56:15;14.20;;;12.27;;
16075;SDS011;8142;48.242;11.644;2022-07-22T05:58:41;15.43;;;12.60;;
16075;SDS011;8142;48.242;11.644;2022-07-22T06:01:08;18.30;;;12.70;;
16075;SDS011;8142;48.242;11.644;2022-07-22T06:03:35;14.83;;;12.10;;
16075;SDS011;8142;48.242;11.644;2022-07-22T06:06:01;15.73;;;12.47;;
16075;SDS011;8142;48.242;11.644;2022-07-22T06:08:30;14.87;;;12.23;;
16075;SDS011;8142;48.242;11.644;2022-07-22T06:10:56;12.57;;;11.27;;
16075;SDS011;8142;48.242;11.644;2022-07-22T06:13:24;15.07;;;11.50;;
16075;SDS011;8142;48.242;11.644;2022-07-22T06:15:50;13.10;;;11.23;;
16075;SDS011;8142;48.242;11.644;2022-07-22T06:18:16;12.77;;;11.47;;
16075;SDS011;8142;48.242;11.644;2022-07-22T06:20:42;11.20;;;10.00;;
16075;SDS011;8142;48.242;11.644;2022-07-22T06:23:08;11.70;;;10.50;;
16075;SDS011;8142;48.242;11.644;2022-07-22T06:25:34;11.33;;;10.17;;
16075;SDS011;8142;48.242;11.644;2022-07-22T06:28:00;12.17;;;10.30;;
16075;SDS011;8142;48.242;11.644;2022-07-22T06:30:26;14.37;;;10.57;;
16075;SDS011;8142;48.242;11.644;2022-07-22T06:32:52;11.53;;;9.73;;
16075;SDS011;8142;48.242;11.644;2022-07-22T06:35:18;11.47;;;10.27;;
16075;SDS011;8142;48.242;11.644;2022-07-22T06:37:44;11.73;;;10.30;;
16075;SDS011;8142;48.242;11.644;2022-07-22T06:40:10;11.07;;;9.97;;
16075;SDS011;8142;48.242;11.644;2022-07-22T06:42:36;11.03;;;9.90;;
16075;SDS011;8142;48.242;11.644;2022-07-22T06:45:03;11.10;;;9.90;;
16075;SDS011;8142;48.242;11.644;2022-07-22T06:47:30;12.63;;;9.80;;
16075;SDS011;8142;48.242;11.644;2022-07-22T06:49:57;11.50;;;9.37;;
16075;SDS011;8142;48.242;11.644;2022-07-22T06:52:23;11.00;;;9.50;;
16075;SDS011;8142;48.242;11.644;2022-07-22T06:54:49;11.40;;;9.83;;
16075;SDS011;8142;48.242;11.644;2022-07-22T06:57:15;10.30;;;9.17;;
16075;SDS011;8142;48.242;11.644;2022-07-22T06:59:41;11.53;;;10.20;;
16075;SDS011;8142;48.242;11.644;2022-07-22T07:02:07;10.40;;;9.40;;
16075;SDS011;8142;48.242;11.644;2022-07-22T07:04:32;12.03;;;10.43;;
16075;SDS011;8142;48.242;11.644;2022-07-22T07:06:58;10.63;;;9.57;;
16075;SDS011;8142;48.242;11.644;2022-07-22T07:09:24;10.10;;;9.03;;
16075;SDS011;8142;48.242;11.644;2022-07-22T07:11:58;10.63;;;9.63;;
16075;SDS011;8142;48.242;11.644;2022-07-22T07:14:24;10.37;;;9.27;;
16075;SDS011;8142;48.242;11.644;2022-07-22T07:16:49;11.40;;;10.20;;
16075;SDS011;8142;48.242;11.644;2022-07-22T07:19:15;11.13;;;9.77;;
16075;SDS011;8142;48.242;11.644;2022-07-22T07:21:41;13.30;;;9.77;;
16075;SDS011;8142;48.242;11.644;2022-07-22T07:24:07;11.50;;;10.33;;
16075;SDS011;8142;48.242;11.644;2022-07-22T07:26:33;11.23;;;9.47;;
16075;SDS011;8142;48.242;11.644;2022-07-22T07:28:58;10.27;;;9.17;;
16075;SDS011;8142;48.242;11.644;2022-07-22T07:31:24;10.70;;;8.70;;
16075;SDS011;8142;48.242;11.644;2022-07-22T07:33:50;9.63;;;8.53;;
16075;SDS011;8142;48.242;11.644;2022-07-22T07:36:16;9.77;;;8.77;;
16075;SDS011;8142;48.242;11.644;2022-07-22T07:38:42;10.90;;;9.30;;
16075;SDS011;8142;48.242;11.644;2022-07-22T07:41:08;10.30;;;8.90;;
16075;SDS011;8142;48.242;11.644;2022-07-22T07:43:34;11.40;;;8.70;;
16075;SDS011;8142;48.242;11.644;2022-07-22T07:46:00;9.50;;;8.50;;
16075;SDS011;8142;48.242;11.644;2022-07-22T07:48:26;10.97;;;8.87;;
16075;SDS011;8142;48.242;11.644;2022-07-22T07:50:52;9.37;;;8.43;;
16075;SDS011;8142;48.242;11.644;2022-07-22T07:53:18;8.63;;;7.83;;
16075;SDS011;8142;48.242;11.644;2022-07-22T07:55:44;9.87;;;8.53;;
16075;SDS011;8142;48.242;11.644;2022-07-22T07:58:10;9.10;;;8.20;;
16075;SDS011;8142;48.242;11.644;2022-07-22T08:00:36;8.80;;;8.00;;
16075;SDS011;8142;48.242;11.644;2022-07-22T08:03:04;9.67;;;7.93;;
16075;SDS011;8142;48.242;11.644;2022-07-22T08:05:30;9.73;;;8.40;;
16075;SDS011;8142;48.242;11.644;2022-07-22T08:07:56;9.07;;;8.17;;
16075;SDS011;8142;48.242;11.644;2022-07-22T08:10:22;9.60;;;8.30;;
16075;SDS011;8142;48.242;11.644;2022-07-22T08:12:48;10.27;;;8.10;;
16075;SDS011;8142;48.242;11.644;2022-07-22T08:15:15;10.93;;;8.10;;
16075;SDS011;8142;48.242;11.644;2022-07-22T08:17:41;8.60;;;7.60;;
16075;SDS011;8142;48.242;11.644;2022-07-22T08:20:07;10.23;;;7.70;;
16075;SDS011;8142;48.242;11.644;2022-07-22T08:22:34;10.40;;;8.00;;
16075;SDS011;8142;48.242;11.644;2022-07-22T08:25:00;10.10;;;7.73;;
16075;SDS011;8142;48.242;11.644;2022-07-22T08:27:25;9.63;;;7.90;;
16075;SDS011;8142;48.242;11.644;2022-07-22T08:29:52;9.20;;;8.07;;
16075;SDS011;8142;48.242;11.644;2022-07-22T08:32:18;10.03;;;8.63;;
16075;SDS011;8142;48.242;11.644;2022-07-22T08:34:43;9.70;;;7.70;;
16075;SDS011;8142;48.242;11.644;2022-07-22T08:37:09;10.07;;;8.50;;
16075;SDS011;8142;48.242;11.644;2022-07-22T08:39:35;8.33;;;7.37;;
16075;SDS011;8142;48.242;11.644;2022-07-22T08:42:02;8.03;;;7.10;;
16075;SDS011;8142;48.242;11.644;2022-07-22T08:44:31;8.03;;;6.97;;
16075;SDS011;8142;48.242;11.644;2022-07-22T08:46:58;7.80;;;7.00;;
16075;SDS011;8142;48.242;11.644;2022-07-22T08:49:25;7.30;;;6.57;;
16075;SDS011;8142;48.242;11.644;2022-07-22T08:51:52;8.20;;;7.20;;
16075;SDS011;8142;48.242;11.644;2022-07-22T08:54:18;9.40;;;7.53;;
16075;SDS011;8142;48.242;11.644;2022-07-22T08:56:48;9.37;;;7.33;;
16075;SDS011;8142;48.242;11.644;2022-07-22T08:59:17;8.23;;;7.30;;
16075;SDS011;8142;48.242;11.644;2022-07-22T09:02:05;8.07;;;7.07;;
16075;SDS011;8142;48.242;11.644;2022-07-22T09:09:53;8.23;;;7.13;;
16075;SDS011;8142;48.242;11.644;2022-07-22T09:12:19;7.90;;;7.10;;
16075;SDS011;8142;48.242;11.644;2022-07-22T09:14:46;8.67;;;7.20;;
16075;SDS011;8142;48.242;11.644;2022-07-22T09:20:17;8.67;;;7.10;;
16075;SDS011;8142;48.242;11.644;2022-07-22T09:22:45;8.97;;;7.17;;
16075;SDS011;8142;48.242;11.644;2022-07-22T09:25:31;8.27;;;6.80;;
16075;SDS011;8142;48.242;11.644;2022-07-22T09:30:33;8.67;;;6.80;;
16075;SDS011;8142;48.242;11.644;2022-07-22T09:33:04;7.90;;;7.03;;
16075;SDS011;8142;48.242;11.644;2022-07-22T09:35:31;8.00;;;7.03;;
16075;SDS011;8142;48.242;11.644;2022-07-22T09:38:01;8.10;;;7.00;;
16075;SDS011;8142;48.242;11.644;2022-07-22T09:40:32;9.27;;;7.10;;
16075;SDS011;8142;48.242;11.644;2022-07-22T09:43:01;8.27;;;7.10;;
16075;SDS011;8142;48.242;11.644;2022-07-22T09:45:29;8.43;;;6.87;;
16075;SDS011;8142;48.242;11.644;2022-07-22T09:47:57;8.33;;;7.47;;
16075;SDS011;8142;48.242;11.644;2022-07-22T09:50:28;7.90;;;6.80;;
16075;SDS011;8142;48.242;11.644;2022-07-22T09:52:56;7.27;;;6.57;;
16075;SDS011;8142;48.242;11.644;2022-07-22T09:55:23;7.17;;;6.47;;
16075;SDS011;8142;48.242;11.644;2022-07-22T09:57:51;7.83;;;6.53;;
16075;SDS011;8142;48.242;11.644;2022-07-22T10:00:19;6.93;;;6.33;;
16075;SDS011;8142;48.242;11.644;2022-07-22T10:02:52;7.80;;;6.60;;
16075;SDS011;8142;48.242;11.644;2022-07-22T10:05:26;8.30;;;7.03;;
16075;SDS011;8142;48.242;11.644;2022-07-22T10:07:57;8.23;;;6.53;;
16075;SDS011;8142;48.242;11.644;2022-07-22T10:10:25;8.17;;;7.07;;
16075;SDS011;8142;48.242;11.644;2022-07-22T10:12:54;9.70;;;7.27;;
16075;SDS011;8142;48.242;11.644;2022-07-22T10:15:25;9.37;;;6.57;;
16075;SDS011;8142;48.242;11.644;2022-07-22T10:17:53;7.73;;;6.40;;
16075;SDS011;8142;48.242;11.644;2022-07-22T10:20:21;7.37;;;6.67;;
16075;SDS011;8142;48.242;11.644;2022-07-22T10:25:15;9.83;;;6.90;;
16075;SDS011;8142;48.242;11.644;2022-07-22T10:30:23;6.77;;;6.07;;
16075;SDS011;8142;48.242;11.644;2022-07-22T10:33:27;7.23;;;6.20;;
16075;SDS011;8142;48.242;11.644;2022-07-22T10:35:54;8.63;;;6.43;;
16075;SDS011;8142;48.242;11.644;2022-07-22T10:38:23;7.03;;;6.40;;
16075;SDS011;8142;48.242;11.644;2022-07-22T10:46:06;7.80;;;6.40;;
16075;SDS011;8142;48.242;11.644;2022-07-22T10:56:26;6.83;;;6.23;;
16075;SDS011;8142;48.242;11.644;2022-07-22T10:58:59;7.17;;;6.10;;
16075;SDS011;8142;48.242;11.644;2022-07-22T11:01:40;7.30;;;6.20;;
16075;SDS011;8142;48.242;11.644;2022-07-22T11:06:41;8.57;;;6.77;;
16075;SDS011;8142;48.242;11.644;2022-07-22T11:09:11;8.40;;;6.50;;
16075;SDS011;8142;48.242;11.644;2022-07-22T11:14:17;10.23;;;7.27;;
16075;SDS011;8142;48.242;11.644;2022-07-22T11:16:47;7.60;;;6.80;;
16075;SDS011;8142;48.242;11.644;2022-07-22T11:19:19;7.37;;;6.60;;
16075;SDS011;8142;48.242;11.644;2022-07-22T11:21:52;8.07;;;6.60;;
16075;SDS011;8142;48.242;11.644;2022-07-22T11:24:20;7.13;;;6.40;;
16075;SDS011;8142;48.242;11.644;2022-07-22T11:26:48;7.20;;;6.50;;
16075;SDS011;8142;48.242;11.644;2022-07-22T11:31:59;7.83;;;6.90;;
16075;SDS011;8142;48.242;11.644;2022-07-22T11:34:27;7.93;;;6.73;;
16075;SDS011;8142;48.242;11.644;2022-07-22T11:36:54;7.53;;;6.83;;
16075;SDS011;8142;48.242;11.644;2022-07-22T11:39:25;8.13;;;7.30;;
16075;SDS011;8142;48.242;11.644;2022-07-22T11:41:52;7.97;;;7.17;;
16075;SDS011;8142;48.242;11.644;2022-07-22T11:44:20;7.13;;;6.43;;
16075;SDS011;8142;48.242;11.644;2022-07-22T11:46:48;7.70;;;6.40;;
16075;SDS011;8142;48.242;11.644;2022-07-22T11:49:16;9.47;;;7.00;;
16075;SDS011;8142;48.242;11.644;2022-07-22T11:51:43;7.73;;;7.00;;
16075;SDS011;8142;48.242;11.644;2022-07-22T11:54:10;8.20;;;7.33;;
16075;SDS011;8142;48.242;11.644;2022-07-22T11:56:36;8.27;;;7.07;;
16075;SDS011;8142;48.242;11.644;2022-07-22T11:59:03;7.90;;;7.10;;
16075;SDS011;8142;48.242;11.644;2022-07-22T12:01:31;8.93;;;6.77;;
16075;SDS011;8142;48.242;11.644;2022-07-22T12:06:31;11.03;;;7.13;;
16075;SDS011;8142;48.242;11.644;2022-07-22T12:09:07;10.27;;;7.87;;
16075;SDS011;8142;48.242;11.644;2022-07-22T12:11:45;9.33;;;7.47;;
16075;SDS011;8142;48.242;11.644;2022-07-22T12:14:22;9.60;;;7.30;;
16075;SDS011;8142;48.242;11.644;2022-07-22T12:16:57;7.70;;;7.00;;
16075;SDS011;8142;48.242;11.644;2022-07-22T12:19:25;7.97;;;6.90;;
16075;SDS011;8142;48.242;11.644;2022-07-22T12:27:00;11.90;;;7.00;;
16075;SDS011;8142;48.242;11.644;2022-07-22T12:32:03;8.20;;;6.80;;
16075;SDS011;8142;48.242;11.644;2022-07-22T12:34:41;8.00;;;7.20;;
16075;SDS011;8142;48.242;11.644;2022-07-22T12:37:23;9.83;;;7.23;;
16075;SDS011;8142;48.242;11.644;2022-07-22T12:40:00;8.13;;;6.70;;
16075;SDS011;8142;48.242;11.644;2022-07-22T12:45:07;8.47;;;6.73;;
16075;SDS011;8142;48.242;11.644;2022-07-22T12:47:47;8.13;;;7.00;;
16075;SDS011;8142;48.242;11.644;2022-07-22T12:50:27;7.70;;;6.90;;
16075;SDS011;8142;48.242;11.644;2022-07-22T12:53:01;9.13;;;7.10;;
16075;SDS011;8142;48.242;11.644;2022-07-22T12:55:38;7.97;;;6.80;;
16075;SDS011;8142;48.242;11.644;2022-07-22T12:58:06;7.80;;;6.90;;
16075;SDS011;8142;48.242;11.644;2022-07-22T13:00:34;8.43;;;7.17;;
16075;SDS011;8142;48.242;11.644;2022-07-22T13:03:02;7.80;;;7.00;;
16075;SDS011;8142;48.242;11.644;2022-07-22T13:05:28;8.03;;;7.30;;
16075;SDS011;8142;48.242;11.644;2022-07-22T13:07:54;9.53;;;6.90;;
16075;SDS011;8142;48.242;11.644;2022-07-22T13:10:21;7.77;;;6.80;;
16075;SDS011;8142;48.242;11.644;2022-07-22T13:12:48;9.40;;;6.80;;
16075;SDS011;8142;48.242;11.644;2022-07-22T13:15:15;7.97;;;7.17;;
16075;SDS011;8142;48.242;11.644;2022-07-22T13:17:41;8.30;;;7.20;;
16075;SDS011;8142;48.242;11.644;2022-07-22T13:20:11;8.47;;;7.57;;
16075;SDS011;8142;48.242;11.644;2022-07-22T13:22:46;9.80;;;7.07;;
16075;SDS011;8142;48.242;11.644;2022-07-22T13:25:13;8.30;;;7.40;;
16075;SDS011;8142;48.242;11.644;2022-07-22T13:27:39;7.67;;;6.87;;
16075;SDS011;8142;48.242;11.644;2022-07-22T13:30:06;7.83;;;7.03;;
16075;SDS011;8142;48.242;11.644;2022-07-22T13:32:32;9.73;;;7.17;;
16075;SDS011;8142;48.242;11.644;2022-07-22T13:34:58;9.83;;;7.97;;
16075;SDS011;8142;48.242;11.644;2022-07-22T13:37:24;8.53;;;7.47;;
16075;SDS011;8142;48.242;11.644;2022-07-22T13:39:51;7.77;;;6.97;;
16075;SDS011;8142;48.242;11.644;2022-07-22T13:42:17;9.43;;;7.00;;
16075;SDS011;8142;48.242;11.644;2022-07-22T13:44:45;8.60;;;7.23;;
16075;SDS011;8142;48.242;11.644;2022-07-22T13:47:11;9.37;;;6.93;;
16075;SDS011;8142;48.242;11.644;2022-07-22T13:49:37;9.50;;;7.50;;
16075;SDS011;8142;48.242;11.644;2022-07-22T13:52:03;8.13;;;7.20;;
16075;SDS011;8142;48.242;11.644;2022-07-22T13:54:30;9.37;;;7.27;;
16075;SDS011;8142;48.242;11.644;2022-07-22T13:56:56;7.93;;;7.13;;
16075;SDS011;8142;48.242;11.644;2022-07-22T13:59:23;9.40;;;7.80;;
16075;SDS011;8142;48.242;11.644;2022-07-22T14:01:49;9.53;;;7.90;;
16075;SDS011;8142;48.242;11.644;2022-07-22T14:04:15;8.57;;;7.30;;
16075;SDS011;8142;48.242;11.644;2022-07-22T14:06:41;10.37;;;7.07;;
16075;SDS011;8142;48.242;11.644;2022-07-22T14:09:07;12.23;;;7.60;;
16075;SDS011;8142;48.242;11.644;2022-07-22T14:11:33;8.27;;;7.37;;
16075;SDS011;8142;48.242;11.644;2022-07-22T14:13:59;8.20;;;7.40;;
16075;SDS011;8142;48.242;11.644;2022-07-22T14:16:25;8.90;;;7.13;;
16075;SDS011;8142;48.242;11.644;2022-07-22T14:19:02;9.73;;;7.87;;
16075;SDS011;8142;48.242;11.644;2022-07-22T14:21:40;8.43;;;7.23;;
16075;SDS011;8142;48.242;11.644;2022-07-22T14:24:14;9.03;;;7.80;;
16075;SDS011;8142;48.242;11.644;2022-07-22T14:26:52;10.53;;;7.10;;
16075;SDS011;8142;48.242;11.644;2022-07-22T14:29:18;7.70;;;7.00;;
16075;SDS011;8142;48.242;11.644;2022-07-22T14:31:46;9.37;;;7.70;;
16075;SDS011;8142;48.242;11.644;2022-07-22T14:34:12;9.00;;;7.07;;
16075;SDS011;8142;48.242;11.644;2022-07-22T14:36:38;8.83;;;7.77;;
16075;SDS011;8142;48.242;11.644;2022-07-22T14:39:04;9.97;;;7.20;;
16075;SDS011;8142;48.242;11.644;2022-07-22T14:41:30;9.03;;;7.07;;
16075;SDS011;8142;48.242;11.644;2022-07-22T14:43:56;8.77;;;7.20;;
16075;SDS011;8142;48.242;11.644;2022-07-22T14:46:22;7.93;;;6.90;;
16075;SDS011;8142;48.242;11.644;2022-07-22T14:48:47;9.13;;;7.20;;
16075;SDS011;8142;48.242;11.644;2022-07-22T14:51:18;9.13;;;6.93;;
16075;SDS011;8142;48.242;11.644;2022-07-22T14:53:45;9.10;;;7.57;;
16075;SDS011;8142;48.242;11.644;2022-07-22T14:56:11;8.60;;;7.60;;
16075;SDS011;8142;48.242;11.644;2022-07-22T14:58:37;8.20;;;7.40;;
16075;SDS011;8142;48.242;11.644;2022-07-22T15:01:03;7.80;;;7.00;;
16075;SDS011;8142;48.242;11.644;2022-07-22T15:03:29;8.57;;;7.63;;
16075;SDS011;8142;48.242;11.644;2022-07-22T15:05:55;8.87;;;7.63;;
16075;SDS011;8142;48.242;11.644;2022-07-22T15:08:21;7.77;;;7.07;;
16075;SDS011;8142;48.242;11.644;2022-07-22T15:10:46;8.57;;;7.63;;
16075;SDS011;8142;48.242;11.644;2022-07-22T15:13:12;9.00;;;7.37;;
16075;SDS011;8142;48.242;11.644;2022-07-22T15:15:38;8.33;;;7.27;;
16075;SDS011;8142;48.242;11.644;2022-07-22T15:18:04;7.93;;;7.13;;
16075;SDS011;8142;48.242;11.644;2022-07-22T15:20:30;8.87;;;7.27;;
16075;SDS011;8142;48.242;11.644;2022-07-22T15:22:57;7.90;;;7.10;;